createdAt,value
2022-11-21T00:00:41.546Z,12.97
2022-11-21T00:03:10.236Z,12.30
2022-11-21T00:05:41.477Z,12.17
2022-11-21T00:08:08.676Z,13.83
2022-11-21T00:10:36.645Z,11.83
2022-11-21T00:13:03.245Z,13.30
2022-11-21T00:15:29.738Z,13.70
2022-11-21T00:17:56.524Z,14.57
2022-11-21T00:20:23.225Z,13.73
2022-11-21T00:22:50.443Z,14.03
2022-11-21T00:25:16.965Z,14.13
2022-11-21T00:27:43.438Z,13.93
2022-11-21T00:30:11.302Z,14.23
2022-11-21T00:32:38.460Z,14.23
2022-11-21T00:35:06.016Z,14.53
2022-11-21T00:37:33.366Z,14.53
2022-11-21T00:40:00.006Z,14.87
2022-11-21T00:42:26.954Z,14.93
2022-11-21T00:44:53.577Z,14.40
2022-11-21T00:47:20.034Z,14.87
2022-11-21T00:49:46.526Z,15.00
2022-11-21T00:52:13.010Z,14.63
2022-11-21T00:54:39.527Z,15.20
2022-11-21T00:57:05.990Z,15.73
2022-11-21T00:59:32.495Z,14.47
2022-11-21T01:01:59.224Z,15.43
2022-11-21T01:04:26.414Z,15.17
2022-11-21T01:06:54.012Z,14.33
2022-11-21T01:09:20.748Z,13.87
2022-11-21T01:11:47.195Z,13.97
2022-11-21T01:14:13.931Z,15.00
2022-11-21T01:16:40.431Z,14.23
2022-11-21T01:19:06.924Z,14.00
2022-11-21T01:21:33.389Z,13.67
2022-11-21T01:24:01.212Z,13.47
2022-11-21T01:26:29.882Z,15.03
2022-11-21T01:28:57.906Z,14.37
2022-11-21T01:31:27.147Z,13.63
2022-11-21T01:33:54.969Z,14.60
2022-11-21T01:36:24.998Z,13.27
2022-11-21T01:38:53.466Z,12.80
2022-11-21T01:41:23.070Z,12.90
2022-11-21T01:43:50.370Z,14.20
2022-11-21T01:46:21.911Z,14.27
2022-11-21T01:49:11.959Z,15.00
2022-11-21T01:51:54.092Z,15.37
2022-11-21T01:54:27.100Z,15.50
2022-11-21T01:57:04.003Z,14.20
2022-11-21T01:59:38.963Z,15.83
2022-11-21T02:02:09.108Z,15.23
2022-11-21T02:04:36.809Z,15.00
2022-11-21T02:07:06.403Z,14.97
2022-11-21T02:09:36.001Z,15.40
2022-11-21T02:12:08.082Z,14.80
2022-11-21T02:14:37.195Z,16.00
2022-11-21T02:17:07.969Z,15.80
2022-11-21T02:19:38.871Z,15.70
2022-11-21T02:22:20.536Z,14.90
2022-11-21T02:25:27.927Z,15.33
2022-11-21T02:28:01.936Z,15.57
2022-11-21T02:30:31.693Z,16.40
2022-11-21T02:32:58.748Z,15.80
2022-11-21T02:35:25.760Z,15.03
2022-11-21T02:37:59.513Z,16.23
2022-11-21T02:40:31.905Z,15.67
2022-11-21T02:43:21.930Z,15.00
2022-11-21T02:45:48.665Z,16.20
2022-11-21T02:48:15.760Z,15.80
2022-11-21T02:50:44.143Z,16.03
2022-11-21T02:53:13.639Z,15.93
2022-11-21T02:55:40.569Z,15.83
2022-11-21T02:58:07.857Z,16.13
2022-11-21T03:00:36.305Z,15.87
2022-11-21T03:03:02.860Z,15.30
2022-11-21T03:05:29.875Z,15.10
2022-11-21T03:07:56.677Z,16.13
2022-11-21T03:10:23.216Z,15.67
2022-11-21T03:12:49.709Z,15.23
2022-11-21T03:15:16.616Z,16.17
2022-11-21T03:17:43.628Z,16.23
2022-11-21T03:20:10.675Z,15.73
2022-11-21T03:22:37.169Z,15.67
2022-11-21T03:25:04.162Z,15.27
2022-11-21T03:27:30.909Z,15.80
2022-11-21T03:29:57.368Z,16.20
2022-11-21T03:32:24.112Z,15.57
2022-11-21T03:34:50.735Z,16.07
2022-11-21T03:37:17.193Z,16.40
2022-11-21T03:39:43.819Z,15.83
2022-11-21T03:42:10.483Z,15.87
2022-11-21T03:44:36.975Z,16.23
2022-11-21T03:47:03.611Z,15.87
2022-11-21T03:49:30.054Z,16.47
2022-11-21T03:51:56.768Z,15.13
2022-11-21T03:54:23.335Z,15.77
2022-11-21T03:56:49.810Z,15.83
2022-11-21T03:59:16.580Z,16.43
2022-11-21T04:01:43.114Z,15.90
2022-11-21T04:04:09.635Z,15.70
2022-11-21T04:06:36.114Z,15.63
2022-11-21T04:09:03.143Z,15.20
2022-11-21T04:11:29.683Z,15.87
2022-11-21T04:13:56.484Z,16.40
2022-11-21T04:16:23.162Z,15.83
2022-11-21T04:18:49.631Z,15.30
2022-11-21T04:21:16.088Z,16.20
2022-11-21T04:23:42.540Z,15.83
2022-11-21T04:26:09.001Z,15.47
2022-11-21T04:28:35.524Z,15.80
2022-11-21T04:31:09.891Z,15.93
2022-11-21T04:33:38.273Z,15.27
2022-11-21T04:36:04.966Z,15.73
2022-11-21T04:38:31.432Z,16.13
2022-11-21T04:40:57.939Z,15.30
2022-11-21T04:43:24.647Z,16.30
2022-11-21T04:45:51.112Z,16.17
2022-11-21T04:48:17.644Z,15.53
2022-11-21T04:50:45.867Z,16.43
2022-11-21T04:53:12.946Z,20.70
2022-11-21T04:55:39.561Z,18.33
2022-11-21T04:58:06.024Z,16.57
2022-11-21T05:00:32.515Z,17.77
2022-11-21T05:03:06.374Z,16.73
2022-11-21T05:05:33.275Z,18.87
2022-11-21T05:08:00.104Z,16.40
2022-11-21T05:10:28.179Z,15.77
2022-11-21T05:13:17.867Z,16.03
2022-11-21T05:15:44.708Z,15.67
2022-11-21T05:18:11.858Z,15.83
2022-11-21T05:20:38.389Z,17.37
2022-11-21T05:23:04.911Z,18.17
2022-11-21T05:25:31.378Z,19.90
2022-11-21T05:27:58.435Z,19.20
2022-11-21T05:30:25.018Z,17.30
2022-11-21T05:32:51.491Z,17.87
2022-11-21T05:35:17.992Z,17.17
2022-11-21T05:37:44.446Z,16.47
2022-11-21T05:40:11.718Z,15.40
2022-11-21T05:43:01.212Z,15.40
2022-11-21T05:45:27.713Z,15.27
2022-11-21T05:47:54.454Z,16.73
2022-11-21T05:50:21.077Z,14.93
2022-11-21T05:52:47.532Z,15.03
2022-11-21T05:55:14.129Z,15.07
2022-11-21T05:57:40.606Z,15.00
2022-11-21T06:00:07.754Z,16.03
2022-11-21T06:02:52.720Z,16.50
2022-11-21T06:05:19.262Z,16.37
2022-11-21T06:07:45.798Z,17.73
2022-11-21T06:10:12.288Z,17.50
2022-11-21T06:12:39.073Z,16.93
2022-11-21T06:15:05.851Z,18.60
2022-11-21T06:17:32.581Z,16.90
2022-11-21T06:19:59.051Z,17.13
2022-11-21T06:22:25.791Z,17.87
2022-11-21T06:24:52.240Z,16.53
2022-11-21T06:27:18.697Z,20.03
2022-11-21T06:29:45.134Z,16.33
2022-11-21T06:32:11.962Z,18.07
2022-11-21T06:34:38.497Z,18.03
2022-11-21T06:37:05.041Z,16.37
2022-11-21T06:39:31.564Z,17.17
2022-11-21T06:41:58.951Z,17.03
2022-11-21T06:44:26.045Z,18.57
2022-11-21T06:46:52.732Z,17.27
2022-11-21T06:49:19.303Z,17.10
2022-11-21T06:51:45.798Z,22.17
2022-11-21T06:54:16.440Z,20.53
2022-11-21T06:56:44.180Z,19.87
2022-11-21T06:59:11.455Z,20.80
2022-11-21T07:01:38.378Z,20.13
2022-11-21T07:04:04.992Z,20.03
2022-11-21T07:06:31.442Z,20.20
2022-11-21T07:09:30.822Z,18.30
2022-11-21T07:11:44.515Z,18.33
2022-11-21T07:14:11.034Z,19.43
2022-11-21T07:16:37.485Z,18.40
2022-11-21T07:19:04.254Z,19.30
2022-11-21T07:21:31.046Z,21.07
2022-11-21T07:23:57.660Z,23.80
2022-11-21T07:26:24.685Z,21.60
2022-11-21T07:28:51.155Z,18.97
2022-11-21T07:31:17.657Z,19.80
2022-11-21T07:33:44.364Z,14.43
2022-11-21T07:36:12.835Z,14.80
2022-11-21T07:38:41.199Z,14.60
2022-11-21T07:41:08.094Z,15.33
2022-11-21T07:43:34.555Z,16.20
2022-11-21T07:46:01.921Z,17.43
2022-11-21T07:48:28.640Z,17.07
2022-11-21T07:50:55.117Z,16.73
2022-11-21T07:53:21.638Z,16.97
2022-11-21T07:55:48.259Z,19.30
2022-11-21T07:58:16.403Z,18.60
2022-11-21T08:00:43.226Z,19.73
2022-11-21T08:03:12.179Z,19.33
2022-11-21T08:05:43.572Z,20.83
2022-11-21T08:08:11.981Z,20.63
2022-11-21T08:10:43.318Z,19.50
2022-11-21T08:13:10.595Z,20.40
2022-11-21T08:15:38.002Z,20.40
2022-11-21T08:18:15.330Z,19.70
2022-11-21T08:20:42.742Z,18.13
2022-11-21T08:23:10.871Z,18.70
2022-11-21T08:25:38.685Z,18.23
2022-11-21T08:28:06.458Z,17.90
2022-11-21T08:30:33.583Z,19.20
2022-11-21T08:33:03.914Z,19.13
2022-11-21T08:35:30.864Z,18.63
2022-11-21T08:37:58.672Z,18.50
2022-11-21T08:40:26.815Z,17.07
2022-11-21T08:43:01.179Z,18.57
2022-11-21T08:45:28.364Z,17.03
2022-11-21T08:47:55.680Z,17.90
2022-11-21T08:50:23.913Z,18.40
2022-11-21T08:52:50.919Z,18.10
2022-11-21T08:55:17.919Z,19.10
2022-11-21T08:57:44.421Z,19.87
2022-11-21T09:00:14.908Z,18.10
2022-11-21T09:02:41.504Z,18.33
2022-11-21T09:05:08.620Z,18.23
2022-11-21T09:07:38.390Z,19.03
2022-11-21T09:10:05.721Z,18.93
2022-11-21T09:12:32.157Z,19.10
2022-11-21T09:15:17.427Z,19.37
2022-11-21T09:18:02.615Z,20.27
2022-11-21T09:20:29.863Z,18.73
2022-11-21T09:22:57.117Z,18.40
2022-11-21T09:25:24.163Z,18.27
2022-11-21T09:27:50.627Z,18.27
2022-11-21T09:30:17.336Z,17.20
2022-11-21T09:32:43.824Z,18.47
2022-11-21T09:35:10.322Z,18.63
2022-11-21T09:37:38.105Z,18.70
2022-11-21T09:40:08.117Z,18.13
2022-11-21T09:43:02.582Z,17.53
2022-11-21T09:45:44.283Z,17.20
2022-11-21T09:48:15.784Z,18.13
2022-11-21T09:50:53.808Z,17.87
2022-11-21T09:53:35.471Z,17.47
2022-11-21T09:56:11.194Z,18.50
2022-11-21T09:58:42.324Z,17.47
2022-11-21T10:01:16.848Z,17.83
2022-11-21T10:03:49.289Z,17.33
2022-11-21T10:06:21.570Z,17.50
2022-11-21T10:09:15.468Z,17.87
2022-11-21T10:12:13.146Z,16.97
2022-11-21T10:14:51.930Z,17.13
2022-11-21T10:17:27.757Z,17.30
2022-11-21T10:20:03.083Z,17.50
2022-11-21T10:22:44.317Z,16.83
2022-11-21T10:25:38.096Z,17.13
2022-11-21T10:28:15.597Z,18.30
2022-11-21T10:30:45.368Z,17.07
2022-11-21T10:33:23.998Z,17.87
2022-11-21T10:35:57.685Z,16.97
2022-11-21T10:38:27.153Z,17.90
2022-11-21T10:41:01.231Z,17.63
2022-11-21T10:44:05.768Z,15.30
2022-11-21T10:46:32.244Z,16.23
2022-11-21T10:49:04.679Z,16.13
2022-11-21T10:51:40.765Z,15.37
2022-11-21T10:54:29.129Z,15.07
2022-11-21T10:57:14.131Z,15.47
2022-11-21T10:59:40.946Z,15.50
2022-11-21T11:02:13.249Z,14.93
2022-11-21T11:04:47.308Z,15.23
2022-11-21T11:07:28.744Z,13.63
2022-11-21T11:10:16.316Z,13.70
2022-11-21T11:13:08.706Z,13.57
2022-11-21T11:16:01.338Z,13.13
2022-11-21T11:18:31.367Z,12.90
2022-11-21T11:21:26.238Z,12.50
2022-11-21T11:23:54.901Z,12.67
2022-11-21T11:26:25.041Z,14.03
2022-11-21T11:28:51.526Z,14.03
2022-11-21T11:31:18.218Z,13.20
2022-11-21T11:33:47.690Z,13.07
2022-11-21T11:36:26.190Z,13.13
2022-11-21T11:38:56.213Z,12.70
2022-11-21T11:42:02.660Z,12.90
2022-11-21T11:45:26.050Z,12.37
2022-11-21T11:47:59.132Z,12.70
2022-11-21T11:50:41.552Z,12.13
2022-11-21T11:53:20.013Z,12.20
2022-11-21T11:56:08.608Z,11.43
2022-11-21T11:58:49.661Z,11.67
2022-11-21T12:01:26.076Z,11.60
2022-11-21T12:04:16.397Z,12.00
2022-11-21T12:07:52.803Z,11.53
2022-11-21T12:10:04.853Z,11.60
2022-11-21T12:12:37.185Z,11.10
2022-11-21T12:15:36.334Z,10.60
2022-11-21T12:18:18.673Z,9.53
2022-11-21T12:20:56.289Z,9.83
2022-11-21T12:23:47.778Z,11.17
2022-11-21T12:26:20.469Z,11.23
2022-11-21T12:29:20.764Z,12.33
2022-11-21T12:32:08.880Z,10.60
2022-11-21T12:34:50.644Z,10.63
2022-11-21T12:37:55.509Z,11.10
2022-11-21T12:40:48.931Z,10.47
2022-11-21T12:43:23.812Z,10.53
2022-11-21T12:46:20.759Z,10.87
2022-11-21T12:49:17.918Z,10.17
2022-11-21T12:52:19.350Z,9.70
2022-11-21T12:55:23.830Z,9.43
2022-11-21T12:58:22.238Z,8.90
2022-11-21T13:01:21.460Z,8.87
2022-11-21T13:04:09.511Z,8.47
2022-11-21T13:06:40.385Z,8.40
2022-11-21T13:09:13.436Z,9.33
2022-11-21T13:11:59.269Z,9.97
2022-11-21T13:14:36.433Z,9.13
2022-11-21T13:17:06.934Z,8.60
2022-11-21T13:19:44.029Z,9.20
2022-11-21T13:22:35.374Z,9.07
2022-11-21T13:25:24.521Z,9.37
2022-11-21T13:27:52.408Z,8.77
2022-11-21T13:30:22.489Z,8.97
2022-11-21T13:32:55.376Z,8.73
2022-11-21T13:35:21.803Z,8.63
2022-11-21T13:38:13.064Z,8.20
2022-11-21T13:41:00.563Z,8.37
2022-11-21T13:43:35.476Z,8.67
2022-11-21T13:46:02.327Z,8.30
2022-11-21T13:48:30.549Z,8.70
2022-11-21T13:51:35.728Z,8.47
2022-11-21T13:54:32.647Z,7.87
2022-11-21T13:57:24.953Z,8.83
2022-11-21T14:00:06.498Z,9.30
2022-11-21T14:03:10.248Z,8.80
2022-11-21T14:05:47.904Z,8.13
2022-11-21T14:08:22.985Z,8.47
2022-11-21T14:10:58.930Z,9.37
2022-11-21T14:13:37.927Z,9.53
2022-11-21T14:16:35.058Z,10.13
2022-11-21T14:19:05.379Z,9.90
2022-11-21T14:21:33.973Z,9.97
2022-11-21T14:24:04.729Z,10.40
2022-11-21T14:26:47.198Z,9.53
2022-11-21T14:29:26.708Z,9.00
2022-11-21T14:31:54.601Z,9.80
2022-11-21T14:34:26.536Z,9.63
2022-11-21T14:36:53.589Z,10.33
2022-11-21T14:39:44.139Z,9.53
2022-11-21T14:42:14.551Z,9.90
2022-11-21T14:44:41.284Z,9.43
2022-11-21T14:47:23.601Z,9.30
2022-11-21T14:49:55.388Z,10.13
2022-11-21T14:52:31.637Z,9.60
2022-11-21T14:57:49.047Z,9.33
2022-11-21T15:03:19.794Z,9.50
2022-11-21T15:06:01.792Z,10.20
2022-11-21T15:09:03.245Z,9.73
2022-11-21T15:11:19.208Z,9.90
2022-11-21T15:14:12.875Z,10.13
2022-11-21T15:16:37.471Z,9.73
2022-11-21T15:19:11.158Z,9.30
2022-11-21T15:21:43.530Z,9.23
2022-11-21T15:24:31.683Z,9.23
2022-11-21T15:26:59.495Z,10.03
2022-11-21T15:29:27.182Z,9.47
2022-11-21T15:32:06.899Z,9.47
2022-11-21T15:34:48.030Z,9.00
2022-11-21T15:37:17.477Z,9.03
2022-11-21T15:39:46.118Z,9.73
2022-11-21T15:42:31.614Z,10.03
2022-11-21T15:45:05.724Z,9.90
2022-11-21T15:47:32.193Z,9.30
2022-11-21T15:49:58.710Z,9.13
2022-11-21T15:52:25.696Z,9.40
2022-11-21T15:54:52.216Z,9.47
2022-11-21T15:59:50.543Z,8.93
2022-11-21T16:02:17.043Z,9.20
2022-11-21T16:04:43.597Z,9.87
2022-11-21T16:07:10.157Z,9.63
2022-11-21T16:09:37.391Z,9.47
2022-11-21T16:12:04.094Z,8.93
2022-11-21T16:14:30.724Z,9.73
2022-11-21T16:16:57.356Z,10.60
2022-11-21T16:19:24.030Z,9.73
2022-11-21T16:21:50.643Z,10.77
2022-11-21T16:24:17.186Z,10.87
2022-11-21T16:26:43.618Z,10.80
2022-11-21T16:29:10.774Z,9.37
2022-11-21T16:31:37.627Z,10.13
2022-11-21T16:34:04.194Z,10.43
2022-11-21T16:36:32.265Z,10.23
2022-11-21T16:39:07.821Z,9.70
2022-11-21T16:41:35.707Z,9.93
2022-11-21T16:44:02.635Z,10.07
2022-11-21T16:46:29.392Z,9.57
2022-11-21T16:49:02.842Z,9.27
2022-11-21T16:51:30.082Z,10.17
2022-11-21T16:54:01.604Z,9.53
2022-11-21T16:56:30.821Z,9.23
2022-11-21T16:58:57.625Z,9.80
2022-11-21T17:01:26.887Z,10.07
2022-11-21T17:03:53.474Z,9.60
2022-11-21T17:06:29.224Z,10.27
2022-11-21T17:08:55.928Z,10.47
2022-11-21T17:11:29.348Z,9.90
2022-11-21T17:14:04.927Z,10.07
2022-11-21T17:16:32.840Z,11.07
2022-11-21T17:19:01.993Z,10.73
2022-11-21T17:21:29.347Z,11.10
2022-11-21T17:23:55.899Z,10.77
2022-11-21T17:26:24.715Z,11.67
2022-11-21T17:28:55.828Z,12.07
2022-11-21T17:31:23.009Z,11.73
2022-11-21T17:33:54.836Z,10.73
2022-11-21T17:36:26.728Z,11.13
2022-11-21T17:38:53.813Z,12.37
2022-11-21T17:41:24.559Z,11.20
2022-11-21T17:43:57.750Z,12.17
2022-11-21T17:46:25.850Z,12.60
2022-11-21T17:48:57.084Z,12.90
2022-11-21T17:51:34.339Z,13.53
2022-11-21T17:54:01.999Z,11.63
2022-11-21T17:56:34.484Z,12.90
2022-11-21T17:59:02.767Z,13.77
2022-11-21T18:01:30.032Z,12.87
2022-11-21T18:04:10.305Z,12.17
2022-11-21T18:06:41.441Z,12.20
2022-11-21T18:09:10.748Z,11.77
2022-11-21T18:11:40.277Z,12.67
2022-11-21T18:14:08.600Z,12.73
2022-11-21T18:16:35.153Z,12.23
2022-11-21T18:19:02.699Z,13.07
2022-11-21T18:21:31.966Z,13.23
2022-11-21T18:24:00.165Z,13.03
2022-11-21T18:26:30.094Z,13.23
2022-11-21T18:31:51.050Z,13.33
2022-11-21T18:34:17.608Z,12.67
2022-11-21T18:36:44.232Z,12.43
2022-11-21T18:39:14.759Z,12.93
2022-11-21T18:41:44.050Z,13.03
2022-11-21T18:44:14.649Z,13.13
2022-11-21T18:46:43.638Z,13.33
2022-11-21T18:49:10.113Z,13.50
2022-11-21T18:51:37.091Z,13.37
2022-11-21T18:54:07.786Z,13.73
2022-11-21T18:56:34.868Z,13.73
2022-11-21T18:59:03.205Z,13.87
2022-11-21T19:01:30.168Z,15.03
2022-11-21T19:03:56.854Z,13.67
2022-11-21T19:06:25.645Z,14.83
2022-11-21T19:08:54.769Z,15.23
2022-11-21T19:11:24.813Z,15.70
2022-11-21T19:13:52.637Z,16.27
2022-11-21T19:16:21.133Z,15.47
2022-11-21T19:19:00.184Z,16.27
2022-11-21T19:21:38.753Z,16.30
2022-11-21T19:24:09.753Z,16.47
2022-11-21T19:26:36.285Z,16.13
2022-11-21T19:29:02.783Z,16.53
2022-11-21T19:31:29.552Z,16.00
2022-11-21T19:33:58.408Z,16.03
2022-11-21T19:36:25.357Z,16.50
2022-11-21T19:38:52.060Z,17.77
2022-11-21T19:41:25.867Z,16.17
2022-11-21T19:43:54.629Z,15.87
2022-11-21T19:46:23.193Z,16.73
2022-11-21T19:48:51.843Z,15.33
2022-11-21T19:51:19.864Z,16.73
2022-11-21T19:53:46.724Z,15.87
2022-11-21T19:56:24.762Z,15.50
2022-11-21T19:58:52.153Z,15.60
2022-11-21T20:01:24.478Z,16.53
2022-11-21T20:03:54.329Z,17.17
2022-11-21T20:06:24.221Z,15.70
2022-11-21T20:08:54.394Z,15.47
2022-11-21T20:11:21.872Z,15.77
2022-11-21T20:13:49.708Z,15.90
2022-11-21T20:16:22.717Z,16.23
2022-11-21T20:18:50.925Z,16.37
2022-11-21T20:21:18.735Z,16.20
2022-11-21T20:23:49.124Z,16.50
2022-11-21T20:26:17.910Z,16.90
2022-11-21T20:28:44.711Z,15.90
2022-11-21T20:31:14.728Z,17.63
2022-11-21T20:33:43.376Z,15.43
2022-11-21T20:36:18.614Z,15.73
2022-11-21T20:38:53.772Z,16.50
2022-11-21T20:41:25.710Z,16.77
2022-11-21T20:45:30.100Z,17.47
2022-11-21T20:47:07.506Z,17.40
2022-11-21T20:49:34.179Z,17.10
2022-11-21T20:54:47.143Z,17.60
2022-11-21T20:57:15.529Z,16.73
2022-11-21T20:59:42.477Z,18.03
2022-11-21T21:02:12.548Z,17.33
2022-11-21T21:04:39.340Z,16.50
2022-11-21T21:07:05.889Z,16.10
2022-11-21T21:09:32.525Z,16.73
2022-11-21T21:11:59.203Z,16.43
2022-11-21T21:14:25.854Z,17.10
2022-11-21T21:16:52.280Z,17.37
2022-11-21T21:19:19.058Z,16.63
2022-11-21T21:21:45.543Z,16.90
2022-11-21T21:24:12.758Z,16.27
2022-11-21T21:26:45.222Z,16.40
2022-11-21T21:29:14.385Z,16.93
2022-11-21T21:31:46.753Z,16.83
2022-11-21T21:34:16.398Z,15.83
2022-11-21T21:36:42.888Z,16.13
2022-11-21T21:39:09.369Z,16.57
2022-11-21T21:41:39.775Z,16.33
2022-11-21T21:44:06.433Z,16.27
2022-11-21T21:46:33.056Z,15.03
2022-11-21T21:48:59.700Z,15.07
2022-11-21T21:51:28.420Z,16.23
2022-11-21T21:53:57.004Z,16.80
2022-11-21T21:56:25.055Z,14.67
2022-11-21T21:58:51.809Z,15.27
2022-11-21T22:01:21.175Z,14.80
2022-11-21T22:03:48.594Z,14.57
2022-11-21T22:06:17.793Z,15.07
2022-11-21T22:08:45.924Z,14.80
2022-11-21T22:11:15.746Z,14.63
2022-11-21T22:13:44.244Z,14.87
2022-11-21T22:16:12.746Z,15.20
2022-11-21T22:18:39.705Z,14.23
2022-11-21T22:21:24.445Z,14.10
2022-11-21T22:24:23.025Z,13.60
2022-11-21T22:26:37.866Z,14.23
2022-11-21T22:29:04.469Z,14.93
2022-11-21T22:31:34.316Z,14.40
2022-11-21T22:34:00.965Z,12.93
2022-11-21T22:36:27.673Z,14.67
2022-11-21T22:38:55.662Z,13.87
2022-11-21T22:41:24.780Z,13.97
2022-11-21T22:43:56.999Z,14.17
2022-11-21T22:46:25.597Z,14.60
2022-11-21T22:48:52.305Z,15.10
2022-11-21T22:51:24.594Z,15.00
2022-11-21T22:53:51.327Z,14.63
2022-11-21T22:56:20.780Z,15.07
2022-11-21T22:58:48.188Z,15.10
2022-11-21T23:01:20.615Z,14.93
2022-11-21T23:03:47.648Z,13.87
2022-11-21T23:06:20.419Z,13.87
2022-11-21T23:08:47.633Z,14.00
2022-11-21T23:11:26.060Z,13.60
2022-11-21T23:13:53.409Z,13.87
2022-11-21T23:16:22.005Z,13.70
2022-11-21T23:18:49.145Z,13.90
2022-11-21T23:21:15.802Z,13.00
2022-11-21T23:23:43.854Z,14.50
2022-11-21T23:26:11.311Z,13.60
2022-11-21T23:28:38.079Z,13.10
2022-11-21T23:31:04.516Z,13.47
2022-11-21T23:33:31.011Z,13.17
2022-11-21T23:35:57.708Z,13.53
2022-11-21T23:38:24.194Z,13.43
2022-11-21T23:40:50.863Z,13.00
2022-11-21T23:43:18.551Z,12.97
2022-11-21T23:45:49.678Z,13.43
2022-11-21T23:48:16.327Z,13.70
2022-11-21T23:50:42.804Z,14.03
2022-11-21T23:53:09.283Z,13.83
2022-11-21T23:55:36.051Z,14.17
2022-11-21T23:58:03.469Z,14.10
